createdAt,value
2022-11-24T09:42:07.497Z,7.10
2022-11-24T09:57:14.710Z,7.57
2022-11-24T10:12:31.472Z,10.20
2022-11-24T10:27:41.858Z,6.80
2022-11-24T10:42:48.900Z,6.43
2022-11-24T10:57:53.559Z,5.53
2022-11-24T11:12:58.297Z,3.15
2022-11-24T11:28:24.025Z,3.92
2022-11-24T11:43:31.465Z,8.57
2022-11-24T11:58:52.325Z,6.15
2022-11-24T12:14:12.353Z,9.93
2022-11-24T12:29:47.032Z,7.27
2022-11-24T12:45:13.151Z,28.60
2022-11-24T13:00:22.362Z,34.20
2022-11-24T13:15:45.107Z,28.05
2022-11-24T13:31:10.692Z,68.40
2022-11-24T13:46:15.481Z,30.73
2022-11-24T14:01:23.060Z,22.08
2022-11-24T14:16:28.061Z,21.85
2022-11-24T14:31:33.112Z,34.47
2022-11-24T14:46:38.165Z,19.73
2022-11-24T15:01:42.863Z,17.88
2022-11-24T15:16:47.581Z,17.20
2022-11-24T15:31:53.050Z,14.23
2022-11-24T15:46:57.889Z,14.70
2022-11-24T16:02:02.589Z,13.32
2022-11-24T16:17:07.203Z,13.38
2022-11-24T16:32:11.804Z,13.73
2022-11-24T16:47:16.633Z,11.05
2022-11-24T17:02:21.242Z,11.00
2022-11-24T17:17:25.913Z,10.35
2022-11-24T17:32:31.516Z,9.95
2022-11-24T17:47:36.078Z,8.40
2022-11-24T18:02:40.757Z,7.90
2022-11-24T18:17:45.423Z,13.55
2022-11-24T18:32:50.056Z,10.48
2022-11-24T18:47:54.646Z,13.52
2022-11-24T19:02:59.213Z,7.82
2022-11-24T19:18:03.799Z,8.05
2022-11-24T19:33:10.295Z,6.20
2022-11-24T19:48:14.895Z,7.45
2022-11-24T20:03:19.477Z,6.85
2022-11-24T20:18:25.369Z,5.65
2022-11-24T20:33:30.113Z,5.20
2022-11-24T20:48:35.358Z,5.03
2022-11-24T21:03:43.303Z,5.80
